Time;durP1;ratioP1;P1;durP2;ratioP2;P2;SDS_P1;SDS_P2;PMS_P1;PMS_P2;Temp;Humidity;BMP_temperature;BMP_pressure;BME280_temperature;BME280_humidity;BME280_pressure;Samples;Min_cycle;Max_cycle;Signal;HPM_P1;HPM_P2
2023/10/21 00:00:22;;;;;;;;;;;10.40;99.90;;;;;;5116583;27;20043;-78
2023/10/21 00:02:50;;;;;;;11.55;9.35;;;10.50;99.90;;;;;;5108274;27;19923;-77
2023/10/21 00:05:16;;;;;;;10.80;8.50;;;10.70;99.90;;;;;;5109917;27;20055;-79
2023/10/21 00:07:42;;;;;;;12.82;10.25;;;10.70;99.90;;;;;;5106399;28;20043;-79
2023/10/21 00:10:08;;;;;;;11.90;9.88;;;10.70;99.90;;;;;;5110040;27;20104;-79
2023/10/21 00:12:36;;;;;;;12.27;10.57;;;10.40;99.90;;;;;;5105077;27;20144;-79
2023/10/21 00:15:04;;;;;;;13.00;10.38;;;10.40;99.90;;;;;;5117140;27;20036;-78
2023/10/21 00:17:30;;;;;;;12.00;8.95;;;10.40;99.90;;;;;;5086648;28;20058;-79
2023/10/21 00:19:55;;;;;;;10.10;9.05;;;10.50;99.90;;;;;;5094540;28;20044;-78
2023/10/21 00:22:21;;;;;;;10.52;9.05;;;10.80;99.90;;;;;;5077570;28;20035;-78
2023/10/21 00:24:47;;;;;;;8.50;7.60;;;10.50;99.90;;;;;;5094121;28;20048;-78
2023/10/21 00:27:12;;;;;;;10.73;9.27;;;10.90;99.90;;;;;;5085046;27;20370;-78
2023/10/21 00:29:38;;;;;;;9.50;8.50;;;10.90;99.90;;;;;;5101525;28;20196;-79
2023/10/21 00:32:04;;;;;;;10.35;8.73;;;10.80;99.90;;;;;;5094197;28;20036;-79
2023/10/21 00:34:31;;;;;;;9.43;8.43;;;11.00;99.90;;;;;;5103430;27;20038;-78
2023/10/21 00:36:57;;;;;;;10.70;8.93;;;10.60;99.90;;;;;;5084209;27;20035;-79
2023/10/21 00:39:23;;;;;;;9.82;8.30;;;11.00;99.90;;;;;;5086933;28;20039;-79
2023/10/21 00:41:48;;;;;;;8.32;7.18;;;11.10;99.90;;;;;;5101016;27;20461;-79
2023/10/21 00:44:14;;;;;;;7.75;6.93;;;10.70;99.90;;;;;;5084540;27;20194;-78
2023/10/21 00:46:43;;;;;;;9.20;7.40;;;10.70;99.90;;;;;;5100996;28;20047;-79
2023/10/21 00:49:09;;;;;;;9.63;8.32;;;11.10;99.90;;;;;;5094040;28;20487;-78
2023/10/21 00:51:37;;;;;;;9.93;8.02;;;11.10;99.90;;;;;;5094124;28;20083;-79
2023/10/21 00:54:03;;;;;;;9.43;7.63;;;11.20;99.90;;;;;;5104389;27;20453;-78
2023/10/21 00:56:29;;;;;;;8.63;7.72;;;11.30;99.90;;;;;;5104246;28;20115;-79
2023/10/21 00:58:55;;;;;;;9.52;7.38;;;11.00;99.90;;;;;;5090760;27;20122;-79
2023/10/21 01:01:21;;;;;;;9.93;7.68;;;11.40;99.90;;;;;;5096429;28;20051;-79
2023/10/21 01:03:47;;;;;;;10.45;9.00;;;11.40;99.90;;;;;;5100111;27;20794;-79
2023/10/21 01:06:14;;;;;;;10.05;8.57;;;11.20;99.90;;;;;;5071728;27;20035;-79
2023/10/21 01:08:44;;;;;;;11.60;8.20;;;11.20;99.90;;;;;;5106713;27;20042;-79
2023/10/21 01:11:10;;;;;;;10.65;8.85;;;11.50;99.90;;;;;;5107084;27;20044;-79
2023/10/21 01:13:36;;;;;;;9.63;8.57;;;11.00;99.90;;;;;;5101057;28;20036;-79
2023/10/21 01:16:02;;;;;;;10.68;8.00;;;11.10;99.90;;;;;;5076155;28;20189;-79
2023/10/21 01:18:33;;;;;;;12.65;10.30;;;11.10;99.90;;;;;;5093145;27;20039;-79
2023/10/21 01:21:03;;;;;;;14.70;11.30;;;11.50;99.90;;;;;;5090204;28;20088;-77
2023/10/21 01:23:34;;;;;;;13.85;11.13;;;11.30;99.90;;;;;;5094657;27;20127;-78
2023/10/21 01:26:00;;;;;;;15.10;11.85;;;11.50;99.90;;;;;;5106525;27;20047;-73
2023/10/21 01:28:27;;;;;;;14.45;11.23;;;11.50;99.90;;;;;;5096174;28;20196;-73
2023/10/21 01:30:52;;;;;;;11.45;10.18;;;11.00;99.90;;;;;;5102569;28;20040;-73
2023/10/21 01:33:18;;;;;;;12.38;11.07;;;11.20;99.90;;;;;;5076231;28;20479;-73
2023/10/21 01:35:44;;;;;;;13.40;11.05;;;11.50;99.90;;;;;;5064643;28;20478;-73
2023/10/21 01:38:10;;;;;;;12.55;10.45;;;11.20;99.90;;;;;;5093485;28;20040;-73
2023/10/21 01:40:36;;;;;;;16.83;11.60;;;11.00;99.90;;;;;;5093219;28;20086;-73
2023/10/21 01:43:01;;;;;;;16.73;12.82;;;11.00;99.90;;;;;;5097190;28;20491;-73
2023/10/21 01:45:28;;;;;;;19.38;14.65;;;11.20;99.90;;;;;;5086860;27;20035;-73
2023/10/21 01:47:53;;;;;;;;;;;10.90;99.90;;;;;;5093255;28;20039;-74
2023/10/21 01:50:19;;;;;;;17.00;12.20;;;10.80;99.90;;;;;;5100245;27;20027;-73
2023/10/21 01:52:45;;;;;;;13.15;10.63;;;11.20;99.90;;;;;;5092888;28;20043;-73
2023/10/21 01:55:11;;;;;;;14.85;11.00;;;11.20;99.90;;;;;;5082499;27;20106;-73
2023/10/21 01:57:37;;;;;;;13.38;10.57;;;11.10;99.90;;;;;;5076734;28;20043;-74
2023/10/21 02:00:09;;;;;;;15.05;11.98;;;11.10;99.90;;;;;;5075256;28;20047;-73
2023/10/21 02:02:36;;;;;;;15.20;11.70;;;10.80;99.90;;;;;;5068316;28;20136;-77
2023/10/21 02:05:02;;;;;;;15.10;11.60;;;11.00;99.90;;;;;;5079419;28;20527;-77
2023/10/21 02:07:27;;;;;;;13.80;11.38;;;10.80;99.90;;;;;;5080695;28;20051;-77
2023/10/21 02:09:53;;;;;;;18.40;13.52;;;11.10;99.90;;;;;;5088442;28;20415;-77
2023/10/21 02:12:19;;;;;;;18.15;13.75;;;10.70;99.90;;;;;;5075109;28;20032;-77
2023/10/21 02:14:44;;;;;;;17.50;13.23;;;10.60;99.90;;;;;;5077324;28;20048;-78
2023/10/21 02:17:10;;;;;;;15.13;13.02;;;11.10;99.90;;;;;;5053625;28;20636;-77
2023/10/21 02:19:36;;;;;;;17.60;14.05;;;10.80;99.90;;;;;;5088909;28;20051;-77
2023/10/21 02:22:02;;;;;;;16.17;13.48;;;10.60;99.90;;;;;;5088982;28;20050;-78
2023/10/21 02:24:27;;;;;;;15.90;11.98;;;10.70;99.90;;;;;;5084897;28;20517;-77
2023/10/21 02:26:53;;;;;;;16.10;12.82;;;10.50;99.90;;;;;;5084159;28;20105;-77
2023/10/21 02:29:19;;;;;;;18.25;14.35;;;10.50;99.90;;;;;;5086179;28;20045;-78
2023/10/21 02:31:44;;;;;;;16.05;12.90;;;10.60;99.90;;;;;;5063898;28;20198;-78
2023/10/21 02:34:10;;;;;;;16.33;12.27;;;10.60;99.90;;;;;;5072396;28;20045;-77
2023/10/21 02:36:36;;;;;;;17.98;13.57;;;10.50;99.90;;;;;;5071951;28;20515;-79
2023/10/21 02:39:07;;;;;;;21.65;13.70;;;10.60;99.90;;;;;;5089035;28;20199;-78
2023/10/21 02:41:32;;;;;;;17.13;13.20;;;10.50;99.90;;;;;;5080906;28;20060;-78
2023/10/21 02:43:58;;;;;;;17.35;12.70;;;10.90;99.90;;;;;;5075004;28;20040;-77
2023/10/21 02:46:23;;;;;;;15.20;12.25;;;10.50;99.90;;;;;;5071157;28;20483;-77
2023/10/21 02:48:49;;;;;;;15.95;12.40;;;10.70;99.90;;;;;;5063829;28;20044;-77
2023/10/21 02:51:17;;;;;;;15.23;11.55;;;10.40;99.90;;;;;;5077504;28;20119;-78
2023/10/21 02:53:43;;;;;;;14.23;11.25;;;10.40;99.90;;;;;;5078624;28;20044;-77
2023/10/21 02:56:10;;;;;;;13.13;11.07;;;10.40;99.90;;;;;;5065606;28;20074;-77
2023/10/21 02:58:36;;;;;;;16.45;12.07;;;10.60;99.90;;;;;;5043027;28;20173;-78
2023/10/21 03:01:13;;;;;;;;;;;10.50;99.90;;;;;;5076961;28;20117;-78
2023/10/21 03:03:39;;;;;;;12.13;10.27;;;10.90;99.90;;;;;;5090337;28;19920;-77
2023/10/21 03:06:04;;;;;;;13.75;10.50;;;10.80;99.90;;;;;;5094929;28;20089;-77
2023/10/21 03:08:30;;;;;;;13.38;10.63;;;10.60;99.90;;;;;;5107151;28;20039;-77
2023/10/21 03:10:55;;;;;;;12.70;10.27;;;10.90;99.90;;;;;;5096314;28;20079;-77
2023/10/21 03:13:23;;;;;;;12.98;9.95;;;10.70;99.90;;;;;;5093763;28;20522;-77
2023/10/21 03:15:48;;;;;;;15.30;11.38;;;10.30;99.90;;;;;;5120201;28;20488;-78
2023/10/21 03:18:14;;;;;;;13.98;11.00;;;10.60;99.90;;;;;;5091143;28;20036;-77
2023/10/21 03:20:40;;;;;;;13.60;10.85;;;10.60;99.90;;;;;;5094792;28;20100;-77
2023/10/21 03:23:05;;;;;;;16.52;12.18;;;10.30;99.90;;;;;;5095760;28;20258;-77
2023/10/21 03:25:33;;;;;;;15.98;11.57;;;10.30;99.90;;;;;;5105055;28;20040;-77
2023/10/21 03:27:59;;;;;;;13.98;12.02;;;10.50;99.90;;;;;;5094357;28;20044;-77
2023/10/21 03:30:24;;;;;;;15.20;11.43;;;10.20;99.90;;;;;;5106380;28;20426;-77
2023/10/21 03:32:50;;;;;;;12.45;10.32;;;10.10;99.90;;;;;;5104146;28;20035;-77
2023/10/21 03:35:16;;;;;;;14.38;11.90;;;10.10;99.90;;;;;;5063310;28;20051;-77
2023/10/21 03:37:41;;;;;;;15.48;11.48;;;10.40;99.90;;;;;;5079049;28;20601;-77
2023/10/21 03:40:10;;;;;;;15.40;12.43;;;10.20;99.90;;;;;;5105169;28;20046;-77
2023/10/21 03:42:40;;;;;;;14.98;11.25;;;10.50;99.90;;;;;;5092870;28;20047;-77
2023/10/21 03:45:07;;;;;;;15.30;11.85;;;10.50;99.90;;;;;;5104144;28;20039;-77
2023/10/21 03:47:34;;;;;;;15.60;12.05;;;10.10;99.90;;;;;;5097101;28;20052;-77
2023/10/21 03:49:59;;;;;;;;;;;10.30;99.90;;;;;;5102420;28;20070;-77
2023/10/21 03:52:25;;;;;;;16.52;12.20;;;10.40;99.90;;;;;;5095525;28;19928;-77
2023/10/21 03:54:51;;;;;;;17.20;13.25;;;10.10;99.90;;;;;;5074716;28;20051;-77
2023/10/21 03:57:16;;;;;;;19.35;14.45;;;10.50;99.90;;;;;;5100912;28;20221;-78
2023/10/21 03:59:42;;;;;;;18.08;12.82;;;10.00;99.90;;;;;;5096707;28;20177;-77
2023/10/21 04:02:08;;;;;;;19.60;13.80;;;10.50;99.90;;;;;;5048644;28;20068;-77
2023/10/21 04:04:34;;;;;;;15.80;11.93;;;10.50;99.90;;;;;;5086877;28;20040;-77
2023/10/21 04:06:59;;;;;;;18.80;13.50;;;10.50;99.90;;;;;;5061753;28;20361;-77
2023/10/21 04:09:26;;;;;;;18.20;13.73;;;10.40;99.90;;;;;;5086556;28;20070;-77
2023/10/21 04:11:53;;;;;;;16.40;12.15;;;10.40;99.90;;;;;;5086509;28;20040;-77
2023/10/21 04:14:18;;;;;;;14.48;11.15;;;10.40;99.90;;;;;;5073969;28;20475;-77
2023/10/21 04:16:44;;;;;;;13.73;10.50;;;10.20;99.90;;;;;;5078613;28;20161;-77
2023/10/21 04:19:10;;;;;;;15.15;11.88;;;10.40;99.90;;;;;;5078727;28;20403;-77
2023/10/21 04:21:36;;;;;;;;;;;10.40;99.90;;;;;;5076677;28;20037;-77
2023/10/21 04:24:03;;;;;;;14.75;11.93;;;10.10;99.90;;;;;;5063063;28;19977;-77
2023/10/21 04:26:29;;;;;;;15.38;11.95;;;10.50;99.90;;;;;;5081006;28;20156;-77
2023/10/21 04:28:55;;;;;;;15.63;11.90;;;10.00;99.90;;;;;;5084582;28;20071;-77
2023/10/21 04:31:21;;;;;;;17.02;13.20;;;10.30;99.90;;;;;;5081903;28;20047;-77
2023/10/21 04:33:46;;;;;;;14.20;11.63;;;9.90;99.90;;;;;;5089711;28;20481;-77
2023/10/21 04:36:17;;;;;;;15.38;12.35;;;10.30;99.90;;;;;;5063509;28;20051;-77
2023/10/21 04:38:44;;;;;;;15.88;11.82;;;9.80;99.90;;;;;;5061719;28;20044;-77
2023/10/21 04:41:10;;;;;;;;;;;10.30;99.90;;;;;;5084309;28;20051;-77
2023/10/21 04:43:36;;;;;;;15.10;12.27;;;10.30;99.90;;;;;;5071215;28;19920;-77
2023/10/21 04:46:02;;;;;;;14.32;11.05;;;9.90;99.90;;;;;;5084562;28;20128;-77
2023/10/21 04:48:27;;;;;;;12.77;10.95;;;9.80;99.90;;;;;;5077563;28;20157;-77
2023/10/21 04:50:53;;;;;;;13.45;10.52;;;10.30;99.90;;;;;;5061838;28;20345;-77
2023/10/21 04:53:19;;;;;;;12.50;10.13;;;9.80;99.90;;;;;;5079707;28;20036;-77
2023/10/21 04:55:45;;;;;;;14.05;10.77;;;10.20;99.90;;;;;;5055729;28;20391;-73
2023/10/21 04:58:10;;;;;;;13.45;10.77;;;10.10;99.90;;;;;;5070184;28;20032;-73
2023/10/21 05:00:36;;;;;;;13.00;10.73;;;10.20;99.90;;;;;;5082498;28;20158;-73
2023/10/21 05:03:02;;;;;;;13.07;9.77;;;9.80;99.90;;;;;;5096382;28;20104;-73
2023/10/21 05:05:28;;;;;;;13.50;10.38;;;9.80;99.90;;;;;;5082010;28;20495;-73
2023/10/21 05:07:53;;;;;;;12.48;9.98;;;10.10;99.90;;;;;;5076754;28;20046;-73
2023/10/21 05:10:19;;;;;;;11.50;8.70;;;9.80;99.90;;;;;;5101082;28;20040;-73
2023/10/21 05:12:45;;;;;;;12.20;9.50;;;9.90;99.90;;;;;;5084518;27;20040;-73
2023/10/21 05:15:11;;;;;;;13.07;9.43;;;9.90;99.90;;;;;;5086985;28;20036;-73
2023/10/21 05:17:37;;;;;;;11.27;9.05;;;9.90;99.90;;;;;;5079350;28;20039;-73
2023/10/21 05:20:03;;;;;;;11.15;8.55;;;10.10;99.90;;;;;;5089515;28;20090;-73
2023/10/21 05:22:29;;;;;;;;;;;9.90;99.90;;;;;;5092262;27;20046;-73
2023/10/21 05:24:55;;;;;;;11.10;8.98;;;9.90;99.90;;;;;;5098913;27;20397;-73
2023/10/21 05:27:21;;;;;;;11.02;8.20;;;10.10;99.90;;;;;;5094447;28;20493;-73
2023/10/21 05:29:47;;;;;;;9.85;7.72;;;10.00;99.90;;;;;;5079166;28;20397;-73
2023/10/21 05:32:14;;;;;;;9.57;7.95;;;9.70;99.90;;;;;;5095802;28;20042;-73
2023/10/21 05:34:41;;;;;;;10.32;8.65;;;9.90;99.90;;;;;;5099203;28;20123;-73
2023/10/21 05:37:07;;;;;;;14.75;9.73;;;9.70;99.90;;;;;;5074373;28;20333;-73
2023/10/21 05:39:32;;;;;;;9.98;8.63;;;10.10;99.90;;;;;;5075020;28;20050;-73
2023/10/21 05:41:58;;;;;;;11.30;8.40;;;10.10;99.90;;;;;;5076268;27;20040;-73
2023/10/21 05:44:24;;;;;;;13.32;9.63;;;10.20;99.90;;;;;;5076894;28;20067;-73
2023/10/21 05:46:51;;;;;;;12.20;9.05;;;9.80;99.90;;;;;;5094125;28;20124;-73
2023/10/21 05:49:18;;;;;;;11.57;8.98;;;9.90;99.90;;;;;;5094208;28;20097;-73
2023/10/21 05:51:43;;;;;;;9.77;8.05;;;9.90;99.90;;;;;;5081458;28;20054;-73
2023/10/21 05:54:09;;;;;;;10.65;8.20;;;9.90;99.90;;;;;;5102435;28;20039;-73
2023/10/21 05:56:35;;;;;;;9.75;7.88;;;10.40;99.90;;;;;;5103113;28;20085;-73
2023/10/21 05:59:01;;;;;;;8.73;6.68;;;9.90;99.90;;;;;;5101061;28;20043;-73
2023/10/21 06:01:26;;;;;;;8.77;7.57;;;10.10;99.90;;;;;;5077559;28;20470;-74
2023/10/21 06:03:53;;;;;;;10.70;8.02;;;10.20;99.90;;;;;;5059312;28;20116;-73
2023/10/21 06:06:19;;;;;;;9.07;7.53;;;10.40;99.90;;;;;;5087842;28;20058;-74
2023/10/21 06:08:44;;;;;;;10.02;7.90;;;10.50;99.90;;;;;;5096919;28;20024;-74
2023/10/21 06:11:10;;;;;;;10.90;8.02;;;10.50;99.90;;;;;;5096540;28;20467;-73
2023/10/21 06:13:36;;;;;;;9.38;7.22;;;10.40;99.90;;;;;;5093661;28;20130;-73
2023/10/21 06:16:02;;;;;;;9.63;7.90;;;10.40;99.90;;;;;;5098584;28;20044;-73
2023/10/21 06:18:28;;;;;;;9.82;7.22;;;10.20;99.90;;;;;;5104468;28;20094;-73
2023/10/21 06:20:54;;;;;;;8.30;6.85;;;10.50;99.90;;;;;;5100477;28;20467;-73
2023/10/21 06:23:19;;;;;;;9.55;7.75;;;10.40;99.90;;;;;;5101752;28;20055;-73
2023/10/21 06:25:45;;;;;;;8.82;6.70;;;10.10;99.90;;;;;;5107729;28;20402;-77
2023/10/21 06:28:13;;;;;;;7.53;6.28;;;10.10;99.90;;;;;;5078276;28;20043;-77
2023/10/21 06:30:40;;;;;;;8.52;6.20;;;10.20;99.90;;;;;;5086067;28;20048;-77
2023/10/21 06:33:08;;;;;;;7.90;5.72;;;10.70;99.90;;;;;;5098713;28;20119;-77
2023/10/21 06:35:36;;;;;;;7.00;6.18;;;10.20;99.90;;;;;;5094170;28;20437;-77
2023/10/21 06:38:01;;;;;;;7.82;6.45;;;10.20;99.90;;;;;;5093692;28;20036;-77
2023/10/21 06:40:30;;;;;;;7.78;6.30;;;10.40;99.90;;;;;;5092119;28;20055;-77
2023/10/21 06:42:56;;;;;;;9.75;7.43;;;10.70;99.90;;;;;;5075459;28;20071;-77
2023/10/21 06:45:22;;;;;;;8.65;6.97;;;10.60;99.90;;;;;;5094476;28;20075;-77
2023/10/21 06:47:48;;;;;;;9.43;7.07;;;10.40;99.90;;;;;;5091012;28;20051;-77
2023/10/21 06:50:14;;;;;;;8.45;6.57;;;10.40;99.90;;;;;;5097159;28;20040;-76
2023/10/21 06:52:39;;;;;;;8.07;6.60;;;10.60;99.90;;;;;;5098017;28;20071;-77
2023/10/21 06:55:06;;;;;;;8.23;6.47;;;10.50;99.90;;;;;;5099360;28;20467;-77
2023/10/21 06:57:32;;;;;;;9.18;6.57;;;10.50;99.90;;;;;;5092572;28;20442;-77
2023/10/21 06:59:59;;;;;;;7.97;6.68;;;10.60;99.90;;;;;;5074981;28;20052;-77
2023/10/21 07:02:25;;;;;;;6.95;5.97;;;10.80;99.90;;;;;;5087634;28;20052;-77
2023/10/21 07:04:51;;;;;;;9.07;7.25;;;10.70;99.90;;;;;;5071650;28;20381;-77
2023/10/21 07:07:17;;;;;;;9.07;6.80;;;10.60;99.90;;;;;;5071862;28;20058;-77
2023/10/21 07:09:42;;;;;;;8.05;6.30;;;10.50;99.90;;;;;;5073976;28;20075;-77
2023/10/21 07:12:08;;;;;;;9.23;6.55;;;10.50;99.90;;;;;;5086043;28;20446;-77
2023/10/21 07:14:35;;;;;;;8.50;6.38;;;11.00;99.90;;;;;;5085482;28;20341;-77
2023/10/21 07:17:00;;;;;;;7.65;6.82;;;10.70;99.90;;;;;;5081094;28;20072;-77
2023/10/21 07:19:26;;;;;;;7.15;5.65;;;10.90;99.90;;;;;;5055178;28;20159;-77
2023/10/21 07:21:52;;;;;;;7.43;5.72;;;10.80;99.90;;;;;;5067155;28;20044;-77
2023/10/21 07:24:18;;;;;;;8.57;6.90;;;11.00;99.90;;;;;;5088956;28;20048;-77
2023/10/21 07:26:44;;;;;;;;;;;11.10;99.90;;;;;;5058433;28;20051;-77
2023/10/21 07:29:09;;;;;;;7.80;6.85;;;11.00;99.90;;;;;;5063937;28;19920;-77
2023/10/21 07:31:35;;;;;;;7.38;5.93;;;11.20;99.90;;;;;;5072207;28;20170;-77
2023/10/21 07:34:01;;;;;;;6.70;5.72;;;10.90;99.90;;;;;;5073032;28;20460;-77
2023/10/21 07:36:27;;;;;;;7.90;6.20;;;10.70;99.90;;;;;;5038899;28;20044;-77
2023/10/21 07:38:53;;;;;;;9.15;6.43;;;10.90;99.90;;;;;;5081263;28;20036;-77
2023/10/21 07:41:19;;;;;;;;;;;10.90;99.90;;;;;;5062465;28;20046;-77
2023/10/21 07:43:45;;;;;;;10.38;7.75;;;11.30;99.90;;;;;;5052750;28;20359;-77
2023/10/21 07:46:11;;;;;;;;;;;11.10;99.90;;;;;;5078611;28;20036;-77
2023/10/21 07:48:40;;;;;;;7.60;6.80;;;10.90;99.90;;;;;;5082259;28;19924;-77
2023/10/21 07:51:06;;;;;;;7.25;5.97;;;11.30;99.90;;;;;;5061455;28;20131;-77
2023/10/21 07:53:32;;;;;;;9.15;6.45;;;11.60;99.90;;;;;;5077527;28;20158;-77
2023/10/21 07:55:57;;;;;;;7.63;5.90;;;11.60;99.90;;;;;;5073047;28;20048;-77
2023/10/21 07:58:23;;;;;;;6.97;6.10;;;11.20;99.90;;;;;;5071546;28;20048;-77
2023/10/21 08:00:49;;;;;;;7.70;5.78;;;11.70;99.90;;;;;;5047484;28;20558;-77
2023/10/21 08:03:15;;;;;;;8.00;6.57;;;11.50;99.90;;;;;;5079296;28;20059;-74
2023/10/21 08:05:41;;;;;;;6.70;5.70;;;11.80;99.90;;;;;;5078071;28;20044;-74
2023/10/21 08:08:10;;;;;;;5.80;5.10;;;11.90;99.90;;;;;;5054893;28;20051;-74
2023/10/21 08:10:36;;;;;;;6.82;5.63;;;11.90;99.90;;;;;;5055808;28;20043;-73
2023/10/21 08:13:02;;;;;;;6.32;4.93;;;11.60;99.90;;;;;;5073285;28;20043;-74
2023/10/21 08:15:29;;;;;;;7.75;5.70;;;11.80;99.90;;;;;;5072930;28;20036;-73
2023/10/21 08:17:59;;;;;;;7.20;5.80;;;11.50;99.90;;;;;;5070321;28;20338;-74
2023/10/21 08:20:25;;;;;;;6.78;5.50;;;12.10;99.90;;;;;;5070738;28;20051;-74
2023/10/21 08:22:51;;;;;;;6.05;4.90;;;11.80;99.90;;;;;;5059034;28;20044;-74
2023/10/21 08:25:17;;;;;;;6.20;5.20;;;11.80;99.90;;;;;;5084353;28;20052;-74
2023/10/21 08:27:43;;;;;;;5.20;4.57;;;12.20;99.90;;;;;;5070625;28;20048;-74
2023/10/21 08:30:09;;;;;;;5.43;4.55;;;12.40;99.90;;;;;;5050393;28;20075;-74
2023/10/21 08:32:36;;;;;;;;;;;12.40;99.90;;;;;;5076216;28;20541;-74
2023/10/21 08:35:01;;;;;;;5.10;4.32;;;11.90;99.90;;;;;;5083413;28;20252;-74
2023/10/21 08:37:27;;;;;;;4.45;4.00;;;12.60;99.90;;;;;;5055749;28;20074;-74
2023/10/21 08:39:53;;;;;;;5.22;4.68;;;12.20;99.90;;;;;;5068797;28;20066;-74
2023/10/21 08:42:27;;;;;;;5.78;4.72;;;12.10;99.90;;;;;;5080011;28;20047;-73
2023/10/21 08:44:58;;;;;;;5.90;4.90;;;12.10;99.90;;;;;;5079976;28;20056;-74
2023/10/21 08:47:24;;;;;;;5.22;4.40;;;12.30;99.90;;;;;;5078897;28;20054;-74
2023/10/21 08:49:51;;;;;;;4.90;4.35;;;12.30;99.90;;;;;;5061977;28;20063;-73
2023/10/21 08:52:18;;;;;;;4.00;3.60;;;12.80;99.90;;;;;;5077138;28;20047;-74
2023/10/21 08:54:46;;;;;;;5.85;4.45;;;12.90;99.90;;;;;;5083851;28;20037;-74
2023/10/21 08:57:12;;;;;;;4.68;4.15;;;12.60;99.90;;;;;;5086052;28;20044;-74
2023/10/21 08:59:38;;;;;;;;;;;12.50;99.90;;;;;;5084356;28;20396;-74
2023/10/21 09:02:05;;;;;;;7.68;5.57;;;13.10;99.90;;;;;;5064136;28;20113;-74
2023/10/21 09:04:32;;;;;;;5.32;4.45;;;13.20;99.90;;;;;;5096055;28;20051;-74
2023/10/21 09:06:59;;;;;;;5.78;4.72;;;13.20;99.90;;;;;;5100743;28;20505;-74
2023/10/21 09:09:26;;;;;;;5.72;4.45;;;12.90;99.90;;;;;;5092701;27;20600;-74
2023/10/21 09:12:23;;;;;;;5.55;4.68;;;12.90;99.90;;;;;;5126338;27;20051;-74
2023/10/21 09:14:55;;;;;;;5.70;4.63;;;13.20;99.90;;;;;;5080622;28;20353;-74
2023/10/21 09:17:21;;;;;;;4.90;4.30;;;13.50;99.90;;;;;;5094682;27;20027;-74
2023/10/21 09:19:53;;;;;;;5.00;4.10;;;13.70;99.90;;;;;;5078984;28;20760;-74
2023/10/21 09:22:25;;;;;;;5.78;4.70;;;13.40;99.90;;;;;;5103519;28;20032;-74
2023/10/21 09:25:20;;;;;;;5.60;4.50;;;13.30;99.90;;;;;;5099215;28;20077;-74
2023/10/21 09:27:49;;;;;;;5.57;4.38;;;13.90;99.90;;;;;;5099314;28;20048;-74
2023/10/21 09:30:22;;;;;;;5.00;4.50;;;13.40;99.90;;;;;;5102012;28;20487;-74
2023/10/21 09:32:49;;;;;;;4.82;4.30;;;14.10;99.90;;;;;;5099373;28;20490;-74
2023/10/21 09:35:16;;;;;;;5.90;4.45;;;14.10;99.90;;;;;;5095781;28;20039;-74
2023/10/21 09:37:43;;;;;;;5.00;4.10;;;14.30;99.90;;;;;;5094226;28;20398;-74
2023/10/21 09:40:09;;;;;;;4.80;4.20;;;14.40;99.90;;;;;;5099642;27;20044;-74
2023/10/21 09:42:42;;;;;;;5.63;4.70;;;14.50;99.90;;;;;;5104724;28;20114;-76
2023/10/21 09:45:10;;;;;;;4.75;4.20;;;14.40;99.90;;;;;;5099029;28;20044;-76
2023/10/21 09:47:39;;;;;;;5.20;3.90;;;14.20;99.90;;;;;;5107210;27;20074;-73
2023/10/21 09:50:10;;;;;;;3.83;3.20;;;14.40;99.90;;;;;;5102087;28;20097;-73
2023/10/21 09:52:47;;;;;;;5.13;3.60;;;13.90;99.90;;;;;;5096805;28;20047;-73
2023/10/21 09:55:14;;;;;;;4.93;3.47;;;14.10;99.90;;;;;;5084284;28;20476;-74
2023/10/21 09:57:41;;;;;;;4.57;3.60;;;14.30;99.90;;;;;;5089861;28;20090;-73
2023/10/21 10:00:10;;;;;;;5.60;3.33;;;14.60;99.90;;;;;;5095665;28;20058;-73
2023/10/21 10:02:37;;;;;;;5.38;3.50;;;14.30;99.90;;;;;;5097205;28;20056;-72
2023/10/21 10:05:07;;;;;;;6.22;3.40;;;14.30;99.90;;;;;;5108586;27;20397;-72
2023/10/21 10:07:41;;;;;;;5.82;3.13;;;14.60;99.90;;;;;;5108750;27;20565;-72
2023/10/21 10:10:12;;;;;;;5.93;3.08;;;14.70;99.90;;;;;;5078234;28;20787;-72
2023/10/21 10:13:02;;;;;;;4.72;2.85;;;14.30;99.90;;;;;;5100432;28;20039;-74
2023/10/21 10:15:30;;;;;;;4.20;2.45;;;14.20;99.90;;;;;;5107569;28;20040;-72
2023/10/21 10:18:04;;;;;;;4.68;3.03;;;14.70;99.90;;;;;;5091342;28;20044;-72
2023/10/21 10:20:31;;;;;;;3.67;2.45;;;14.10;99.90;;;;;;5097495;28;20148;-72
2023/10/21 10:23:07;;;;;;;4.00;2.70;;;14.70;99.90;;;;;;5098527;28;20054;-72
2023/10/21 10:25:38;;;;;;;4.28;2.25;;;14.20;99.90;;;;;;5096153;28;20053;-73
2023/10/21 10:28:05;;;;;;;3.80;2.20;;;14.30;99.90;;;;;;5104064;28;20374;-72
2023/10/21 10:30:43;;;;;;;2.72;1.90;;;14.10;99.90;;;;;;5103614;28;20055;-72
2023/10/21 10:33:15;;;;;;;4.55;2.25;;;14.70;99.90;;;;;;5108114;27;20131;-72
2023/10/21 10:35:47;;;;;;;3.03;1.70;;;14.10;99.90;;;;;;5111152;27;20070;-72
2023/10/21 10:38:25;;;;;;;4.45;2.28;;;14.20;99.90;;;;;;5101795;27;20104;-72
2023/10/21 10:40:57;;;;;;;4.30;2.28;;;14.50;99.90;;;;;;5100664;28;20123;-72
2023/10/21 10:43:23;;;;;;;3.80;2.10;;;14.20;99.90;;;;;;5101159;28;20131;-72
2023/10/21 10:45:49;;;;;;;3.50;1.95;;;14.40;99.90;;;;;;5100381;27;20047;-72
2023/10/21 10:48:16;;;;;;;3.00;1.70;;;14.10;99.90;;;;;;5131450;27;20423;-72
2023/10/21 10:50:43;;;;;;;2.85;1.70;;;14.20;99.90;;;;;;5130870;27;20047;-72
2023/10/21 10:53:13;;;;;;;3.35;1.83;;;14.60;99.90;;;;;;5114599;27;20035;-72
2023/10/21 10:55:47;;;;;;;2.80;1.55;;;14.20;99.90;;;;;;5130716;27;20054;-72
2023/10/21 10:58:14;;;;;;;1.92;1.30;;;14.20;99.90;;;;;;5093278;28;20075;-70
2023/10/21 11:00:41;;;;;;;2.60;1.55;;;14.40;99.90;;;;;;5093345;28;20043;-71
2023/10/21 11:03:10;;;;;;;2.53;1.00;;;14.10;99.90;;;;;;5093488;28;20056;-71
2023/10/21 11:05:37;;;;;;;1.30;0.98;;;14.70;99.90;;;;;;5093100;28;20036;-71
2023/10/21 11:08:10;;;;;;;1.13;1.00;;;14.80;99.90;;;;;;5077315;28;20071;-71
2023/10/21 11:10:36;;;;;;;1.75;1.10;;;14.80;99.90;;;;;;5098085;28;20043;-71
2023/10/21 11:13:04;;;;;;;1.52;1.05;;;14.20;99.90;;;;;;5093620;28;20696;-72
2023/10/21 11:15:31;;;;;;;1.17;0.80;;;14.60;99.90;;;;;;5105320;28;20047;-72
2023/10/21 11:17:56;;;;;;;2.50;0.90;;;14.10;99.90;;;;;;5101797;28;20105;-72
2023/10/21 11:20:22;;;;;;;3.33;0.90;;;14.20;99.90;;;;;;5100349;27;20477;-72
2023/10/21 11:22:48;;;;;;;3.05;0.90;;;13.80;99.90;;;;;;5115279;27;20035;-73
2023/10/21 11:25:14;;;;;;;1.85;0.95;;;13.80;99.90;;;;;;5107854;28;20480;-79
2023/10/21 11:27:40;;;;;;;2.00;0.90;;;13.90;99.90;;;;;;5092819;28;20100;-79
2023/10/21 11:30:10;;;;;;;1.10;0.73;;;14.10;99.90;;;;;;5075755;28;20116;-80
2023/10/21 11:32:39;;;;;;;1.33;1.05;;;14.10;99.90;;;;;;5093530;28;20052;-78
2023/10/21 11:35:11;;;;;;;1.55;0.80;;;13.90;99.90;;;;;;5106967;28;20066;-79
2023/10/21 11:37:57;;;;;;;1.27;0.90;;;14.30;99.90;;;;;;5106961;28;20244;-80
2023/10/21 11:40:23;;;;;;;1.88;1.02;;;14.40;99.90;;;;;;5098013;28;20095;-80
2023/10/21 11:42:59;;;;;;;;;;;14.30;99.90;;;;;;5077782;28;20402;-83
2023/10/21 11:45:30;;;;;;;2.25;0.90;;;14.40;99.90;;;;;;5084206;28;20419;-80
2023/10/21 11:48:09;;;;;;;2.25;1.00;;;14.40;99.90;;;;;;5069175;28;20047;-80
2023/10/21 11:50:39;;;;;;;1.33;0.90;;;14.50;99.90;;;;;;5100387;28;20100;-80
2023/10/21 11:53:12;;;;;;;0.88;0.60;;;14.40;99.90;;;;;;5064512;28;20107;-80
2023/10/21 12:26:19;;;;;;;1.55;0.77;;;13.60;99.90;;;;;;5063211;28;20395;-79
2023/10/21 12:29:25;;;;;;;1.70;0.75;;;13.70;99.90;;;;;;5090761;28;20138;-79
2023/10/21 12:36:36;;;;;;;1.33;0.60;;;14.00;99.90;;;;;;5101014;28;20054;-81
2023/10/21 12:41:39;;;;;;;1.42;0.60;;;15.10;99.90;;;;;;5092328;28;20055;-82
2023/10/21 12:44:12;;;;;;;2.45;0.73;;;15.40;99.90;;;;;;5093829;28;20531;-82
2023/10/21 12:46:40;;;;;;;3.08;0.60;;;15.60;99.90;;;;;;5079796;28;20043;-82
2023/10/21 12:49:17;;;;;;;1.48;0.55;;;15.60;99.90;;;;;;5095084;28;20423;-82
2023/10/21 12:51:43;;;;;;;1.13;0.60;;;15.40;99.90;;;;;;5076471;28;20522;-77
2023/10/21 12:54:11;;;;;;;0.85;0.60;;;15.30;99.90;;;;;;5091001;28;20032;-77
2023/10/21 12:56:40;;;;;;;1.40;0.50;;;15.10;99.90;;;;;;5073729;28;20044;-77
2023/10/21 12:59:06;;;;;;;2.70;0.70;;;14.90;99.90;;;;;;5073543;28;20444;-76
2023/10/21 13:01:34;;;;;;;0.93;0.57;;;14.60;99.90;;;;;;5073551;28;20047;-77
2023/10/21 13:04:00;;;;;;;2.28;0.55;;;14.60;99.90;;;;;;5070440;28;20047;-77
2023/10/21 13:06:26;;;;;;;0.95;0.50;;;14.60;99.90;;;;;;5091003;28;20047;-77
2023/10/21 13:08:54;;;;;;;1.17;0.50;;;14.80;99.90;;;;;;5092919;28;20093;-77
2023/10/21 13:11:21;;;;;;;1.42;0.60;;;14.70;99.90;;;;;;5079908;28;20040;-77
2023/10/21 13:13:46;;;;;;;0.75;0.43;;;14.50;99.90;;;;;;5090444;28;20036;-77
2023/10/21 13:16:14;;;;;;;0.65;0.47;;;14.40;99.90;;;;;;5073632;28;20050;-76
2023/10/21 13:18:40;;;;;;;0.73;0.40;;;14.50;99.90;;;;;;5090526;28;20040;-77
2023/10/21 13:21:06;;;;;;;0.77;0.45;;;14.40;99.90;;;;;;5090437;28;20063;-77